Time;durP1;ratioP1;P1;durP2;ratioP2;P2;SDS_P1;SDS_P2;PMS_P1;PMS_P2;Temp;Humidity;BMP_temperature;BMP_pressure;BME280_temperature;BME280_humidity;BME280_pressure;Samples;Min_cycle;Max_cycle;Signal;HPM_P1;HPM_P2
2021/08/10 00:01:48;;;;;;;6.00;3.20;;;;;;;13.33;78.07;100882.36;93955;1196;80641;-58
2021/08/10 00:03:56;;;;;;;5.60;3.50;;;;;;;13.31;78.10;100882.26;93976;1201;98866;-58
2021/08/10 00:06:04;;;;;;;5.80;2.90;;;;;;;13.26;78.24;100885.77;94007;1201;88303;-65
2021/08/10 00:08:11;;;;;;;5.70;2.90;;;;;;;13.27;78.33;100879.14;94002;1201;94705;-58
2021/08/10 00:10:23;;;;;;;5.30;2.50;;;;;;;13.30;78.32;100880.21;93977;1201;79553;-64
2021/08/10 00:12:31;;;;;;;6.50;3.20;;;;;;;13.31;78.33;100880.89;94018;1201;81840;-65
2021/08/10 00:14:38;;;;;;;5.80;3.10;;;;;;;13.30;78.46;100880.59;93918;1201;98260;-59
2021/08/10 00:16:46;;;;;;;6.60;3.60;;;;;;;13.30;78.39;100882.41;93966;1202;87670;-58
2021/08/10 00:18:54;;;;;;;5.20;3.10;;;;;;;13.28;78.42;100884.84;93965;1201;95109;-58
2021/08/10 00:21:02;;;;;;;4.30;2.90;;;;;;;13.29;78.42;100881.83;93936;1201;81573;-65
2021/08/10 00:23:09;;;;;;;5.30;3.10;;;;;;;13.29;78.48;100878.83;93955;1201;82497;-65
2021/08/10 00:25:17;;;;;;;8.40;3.10;;;;;;;13.26;78.50;100874.04;94010;1201;98694;-58
2021/08/10 00:27:25;;;;;;;6.30;3.30;;;;;;;13.26;78.58;100873.89;93936;1201;88498;-57
2021/08/10 00:29:33;;;;;;;5.00;3.30;;;;;;;13.27;78.78;100875.34;93759;1202;94169;-58
2021/08/10 00:31:40;;;;;;;7.20;3.50;;;;;;;13.31;78.83;100875.97;93947;1202;81218;-65
2021/08/10 00:33:48;;;;;;;6.80;3.00;;;;;;;13.32;78.87;100876.38;93944;1202;80794;-64
2021/08/10 00:35:56;;;;;;;5.40;3.20;;;;;;;13.35;78.89;100883.34;93976;1201;99188;-59
2021/08/10 00:38:04;;;;;;;6.10;3.10;;;;;;;13.40;79.03;100882.52;93964;1201;87698;-58
2021/08/10 00:40:15;;;;;;;6.50;3.30;;;;;;;13.44;79.07;100884.73;93998;1201;92946;-65
2021/08/10 00:42:23;;;;;;;4.60;3.00;;;;;;;13.43;79.05;100883.79;93754;1202;82345;-65
2021/08/10 00:44:31;;;;;;;4.90;3.30;;;;;;;13.43;78.94;100885.67;93995;1196;81445;-65
2021/08/10 00:46:39;;;;;;;5.50;3.20;;;;;;;13.44;78.93;100884.05;93955;1201;97782;-58
2021/08/10 00:48:50;;;;;;;4.70;3.20;;;;;;;13.43;79.08;100881.27;93949;1201;87887;-58
2021/08/10 00:50:59;;;;;;;4.60;2.90;;;;;;;13.43;79.13;100880.83;93976;1195;93047;-65
2021/08/10 00:53:07;;;;;;;5.90;3.10;;;;;;;13.45;79.10;100886.48;93953;1190;80912;-65
2021/08/10 00:55:16;;;;;;;3.80;3.00;;;;;;;13.43;79.18;100885.84;93953;1202;82126;-65
2021/08/10 00:57:27;;;;;;;4.80;2.70;;;;;;;13.43;79.29;100884.48;94013;1195;98183;-65
2021/08/10 00:59:37;;;;;;;4.60;2.80;;;;;;;13.44;79.28;100886.15;93986;1202;88675;-65
2021/08/10 01:01:45;;;;;;;5.70;3.30;;;;;;;13.45;79.37;100882.81;93791;1197;94614;-58
2021/08/10 01:03:53;;;;;;;4.00;3.10;;;;;;;13.45;79.54;100886.23;93965;1201;78956;-58
2021/08/10 01:06:07;;;;;;;6.40;3.00;;;;;;;13.46;79.39;100884.10;93981;1196;79987;-65
2021/08/10 01:08:30;;;;;;;5.40;3.00;;;;;;;13.45;79.26;100886.77;93996;1202;96832;-65
2021/08/10 01:10:46;;;;;;;4.40;3.20;;;;;;;13.45;79.26;100880.46;93967;1196;86526;-65
2021/08/10 01:13:09;;;;;;;5.10;2.90;;;;;;;13.43;79.23;100883.38;93964;1201;94895;-65
2021/08/10 01:15:19;;;;;;;7.60;3.30;;;;;;;13.42;79.30;100876.63;93951;1196;78370;-66
2021/08/10 01:17:34;;;;;;;6.30;3.20;;;;;;;13.36;79.28;100874.21;93948;1201;80163;-65
2021/08/10 01:20:25;;;;;;;6.70;3.00;;;;;;;13.34;79.43;100873.82;93954;1201;98597;-64
2021/08/10 01:22:38;;;;;;;7.00;3.60;;;;;;;13.33;79.29;100871.59;93955;1201;88800;-65
2021/08/10 01:24:56;;;;;;;5.60;3.50;;;;;;;13.30;79.24;100876.58;94020;1195;92914;-59
2021/08/10 01:27:30;;;;;;;7.60;3.30;;;;;;;13.28;79.32;100873.47;93986;1201;79352;-64
2021/08/10 01:29:51;;;;;;;5.00;3.30;;;;;;;13.26;79.38;100871.95;93995;1202;81757;-60
2021/08/10 01:32:00;;;;;;;5.70;3.20;;;;;;;13.24;79.41;100871.14;93983;1201;97559;-63
2021/08/10 01:34:24;;;;;;;4.50;3.10;;;;;;;13.23;79.38;100873.97;94009;1202;87573;-65
2021/08/10 01:36:38;;;;;;;5.10;3.00;;;;;;;13.25;79.44;100874.58;94030;1201;93397;-58
2021/08/10 01:38:53;;;;;;;4.30;3.20;;;;;;;13.28;79.49;100874.86;93968;1199;78309;-65
2021/08/10 01:41:02;;;;;;;4.30;2.90;;;;;;;13.27;79.50;100872.63;94010;1201;83206;-58
2021/08/10 01:43:13;;;;;;;5.50;2.90;;;;;;;13.28;79.43;100874.77;93995;1202;97843;-58
2021/08/10 01:45:20;;;;;;;5.00;3.10;;;;;;;13.24;79.62;100871.60;94003;1196;87386;-59
2021/08/10 01:47:34;;;;;;;5.70;2.90;;;;;;;13.19;79.67;100875.35;93980;1202;93781;-60
2021/08/10 01:49:45;;;;;;;5.20;3.30;;;;;;;13.16;79.72;100873.23;93785;1203;80853;-65
2021/08/10 01:51:57;;;;;;;5.10;3.20;;;;;;;13.12;79.75;100867.81;94000;1202;83586;-66
2021/08/10 01:54:08;;;;;;;4.80;3.00;;;;;;;13.08;79.66;100870.61;94012;1201;98874;-59
2021/08/10 01:56:18;;;;;;;5.50;3.20;;;;;;;13.08;79.70;100869.60;94050;1201;87402;-65
2021/08/10 01:58:26;;;;;;;7.30;4.00;;;;;;;13.07;79.71;100865.62;94011;1201;93397;-65
2021/08/10 02:00:36;;;;;;;5.70;3.20;;;;;;;13.03;79.82;100865.99;94030;1201;79804;-65
2021/08/10 02:02:46;;;;;;;6.50;3.60;;;;;;;13.00;79.85;100867.05;93819;1196;81257;-66
2021/08/10 02:04:54;;;;;;;4.40;2.90;;;;;;;12.98;79.87;100871.85;94022;1202;99844;-65
2021/08/10 02:07:02;;;;;;;5.10;3.50;;;;;;;12.95;79.99;100872.08;94002;1196;86754;-65
2021/08/10 02:09:12;;;;;;;5.50;3.40;;;;;;;12.92;80.07;100872.63;93973;1202;95016;-66
2021/08/10 02:11:22;;;;;;;5.30;3.70;;;;;;;12.88;80.21;100872.73;94003;1201;80127;-59
2021/08/10 02:13:30;;;;;;;4.80;3.20;;;;;;;12.86;80.40;100873.41;94002;1201;82062;-59
2021/08/10 02:15:40;;;;;;;4.90;3.00;;;;;;;12.86;80.30;100870.14;93932;1201;98364;-59
2021/08/10 02:17:49;;;;;;;10.10;3.20;;;;;;;12.83;80.27;100869.45;93951;1196;86478;-57
2021/08/10 02:19:57;;;;;;;4.50;3.30;;;;;;;12.83;80.24;100872.66;93745;1202;93621;-65
2021/08/10 02:22:10;;;;;;;6.90;3.40;;;;;;;12.82;80.29;100871.59;93794;1201;78950;-65
2021/08/10 02:24:36;;;;;;;7.40;3.00;;;;;;;12.80;80.35;100870.47;93809;1196;80322;-65
2021/08/10 02:26:52;;;;;;;9.70;4.90;;;;;;;12.79;80.28;100867.73;93784;1201;98164;-58
2021/08/10 02:29:02;;;;;;;5.50;3.20;;;;;;;12.79;80.30;100866.53;93788;1196;88152;-58
2021/08/10 02:31:11;;;;;;;6.00;3.10;;;;;;;12.79;80.34;100867.64;93765;1201;95166;-66
2021/08/10 02:33:20;;;;;;;4.80;3.00;;;;;;;12.77;80.43;100874.36;93760;1202;80281;-66
2021/08/10 02:35:31;;;;;;;5.30;3.00;;;;;;;12.75;80.51;100873.67;93804;1201;82570;-66
2021/08/10 02:37:42;;;;;;;5.70;3.10;;;;;;;12.73;80.64;100873.63;93749;1201;99191;-66
2021/08/10 02:39:54;;;;;;;5.60;3.20;;;;;;;12.72;80.63;100871.91;93746;1201;88243;-59
2021/08/10 02:42:03;;;;;;;6.20;3.30;;;;;;;12.70;80.63;100868.67;93749;1202;94223;-58
2021/08/10 02:44:15;;;;;;;5.10;3.20;;;;;;;12.70;80.64;100863.55;93792;1202;79915;-58
2021/08/10 02:46:22;;;;;;;4.80;3.20;;;;;;;12.72;80.70;100861.77;93821;1196;80473;-58
2021/08/10 02:48:35;;;;;;;5.20;3.30;;;;;;;12.72;80.83;100852.64;93746;1202;99254;-58
2021/08/10 02:50:42;;;;;;;4.90;3.20;;;;;;;12.76;80.93;100847.05;93813;1201;88663;-65
2021/08/10 02:52:50;;;;;;;6.40;3.20;;;;;;;12.78;81.03;100851.83;93789;1202;94741;-65
2021/08/10 02:54:58;;;;;;;5.80;3.20;;;;;;;12.80;81.13;100852.98;93787;1202;80376;-58
2021/08/10 02:57:13;;;;;;;6.50;3.40;;;;;;;12.83;81.14;100851.38;93756;1190;80760;-58
2021/08/10 02:59:25;;;;;;;4.80;3.20;;;;;;;12.84;81.25;100854.45;93769;1201;98819;-59
2021/08/10 03:01:40;;;;;;;6.60;3.50;;;;;;;12.85;81.24;100851.46;93858;1200;87777;-65
2021/08/10 03:03:48;;;;;;;6.80;3.20;;;;;;;12.87;81.44;100855.52;93776;1202;94146;-66
2021/08/10 03:06:00;;;;;;;7.60;4.20;;;;;;;12.90;81.43;100851.33;93751;1202;81429;-59
2021/08/10 03:08:10;;;;;;;5.60;3.00;;;;;;;12.94;81.28;100853.77;93778;1202;81372;-59
2021/08/10 03:10:20;;;;;;;6.80;3.20;;;;;;;12.94;81.31;100852.96;93774;1202;98822;-66
2021/08/10 03:12:32;;;;;;;6.10;3.50;;;;;;;12.95;81.30;100854.52;93785;1202;87969;-66
2021/08/10 03:14:40;;;;;;;5.50;3.50;;;;;;;12.94;81.34;100854.97;93735;1203;94586;-65
2021/08/10 03:16:50;;;;;;;4.80;3.00;;;;;;;12.93;81.44;100856.88;93751;1202;81374;-66
2021/08/10 03:19:00;;;;;;;8.40;3.20;;;;;;;12.96;81.40;100856.52;93768;1186;80163;-65
2021/08/10 03:21:12;;;;;;;5.80;3.20;;;;;;;12.99;81.47;100856.27;93779;1201;98804;-59
2021/08/10 03:23:21;;;;;;;6.20;3.50;;;;;;;12.99;81.44;100854.31;93805;1202;88116;-59
2021/08/10 03:25:30;;;;;;;6.60;3.30;;;;;;;13.00;81.44;100859.45;93782;1202;94801;-67
2021/08/10 03:27:40;;;;;;;6.70;2.90;;;;;;;13.01;81.43;100858.25;93786;1200;79895;-67
2021/08/10 03:29:53;;;;;;;6.10;3.20;;;;;;;13.00;81.43;100855.45;93788;1202;81222;-59
2021/08/10 03:32:01;;;;;;;6.80;3.30;;;;;;;13.01;81.32;100857.13;93783;1202;99208;-59
2021/08/10 03:34:10;;;;;;;4.90;3.30;;;;;;;13.01;81.32;100859.75;93781;1202;88210;-59
2021/08/10 03:36:20;;;;;;;6.50;3.10;;;;;;;13.00;81.36;100857.10;93822;1202;94292;-65
2021/08/10 03:38:28;;;;;;;6.30;3.60;;;;;;;12.99;81.40;100862.31;93751;1202;81216;-66
2021/08/10 03:40:37;;;;;;;6.30;2.70;;;;;;;13.00;81.28;100858.61;93775;1202;81713;-65
2021/08/10 03:42:45;;;;;;;4.80;2.90;;;;;;;12.97;81.48;100860.88;93793;1202;98171;-65
2021/08/10 03:44:55;;;;;;;4.90;3.10;;;;;;;12.97;81.48;100859.80;93798;1202;85645;-65
2021/08/10 03:47:02;;;;;;;7.90;3.00;;;;;;;12.99;81.48;100858.02;93785;1202;93985;-65
2021/08/10 03:49:10;;;;;;;5.90;3.00;;;;;;;13.02;81.48;100858.97;93793;1202;80205;-67
2021/08/10 03:51:19;;;;;;;6.10;3.10;;;;;;;13.05;81.53;100856.73;93848;1187;80294;-59
2021/08/10 03:53:29;;;;;;;6.20;3.00;;;;;;;13.08;81.46;100856.58;93778;1202;98617;-59
2021/08/10 03:55:38;;;;;;;6.20;3.30;;;;;;;13.11;81.39;100856.33;93777;1196;87716;-60
2021/08/10 03:57:48;;;;;;;5.80;3.00;;;;;;;13.20;81.51;100856.55;93785;1200;93833;-59
2021/08/10 03:59:59;;;;;;;6.90;3.20;;;;;;;13.52;81.51;100853.91;93802;1196;78865;-65
2021/08/10 04:02:09;;;;;;;6.40;3.50;;;;;;;13.74;81.17;100853.00;93836;1202;81256;-66
2021/08/10 04:04:18;;;;;;;6.40;3.50;;;;;;;14.03;81.28;100850.95;93813;1202;97869;-65
2021/08/10 04:06:27;;;;;;;6.10;2.80;;;;;;;14.52;80.95;100850.71;93776;1196;86686;-65
2021/08/10 04:08:35;;;;;;;6.00;3.10;;;;;;;15.24;80.79;100846.75;93801;1196;93142;-66
2021/08/10 04:10:48;;;;;;;5.80;3.30;;;;;;;16.26;80.42;100845.48;93802;1202;79699;-59
2021/08/10 04:12:58;;;;;;;4.90;3.20;;;;;;;17.17;79.44;100838.37;93824;1202;81662;-58
2021/08/10 04:15:08;;;;;;;7.20;3.60;;;;;;;17.74;77.90;100841.33;93710;1202;99438;-66
2021/08/10 04:17:16;;;;;;;5.70;3.30;;;;;;;17.50;76.77;100844.25;93848;1196;86277;-66
2021/08/10 04:19:33;;;;;;;7.30;3.40;;;;;;;17.03;76.66;100841.43;93794;1202;94292;-65
2021/08/10 04:21:41;;;;;;;5.20;3.40;;;;;;;16.69;76.49;100838.73;93797;1202;79081;-58
2021/08/10 04:23:48;;;;;;;5.90;3.90;;;;;;;16.47;76.59;100844.65;93802;1189;80621;-58
2021/08/10 04:25:56;;;;;;;5.00;3.70;;;;;;;16.31;76.60;100838.89;93819;1202;99157;-59
2021/08/10 04:28:04;;;;;;;6.10;3.80;;;;;;;16.22;76.71;100841.69;93800;1196;86717;-59
2021/08/10 04:30:13;;;;;;;5.00;3.00;;;;;;;16.15;76.85;100842.34;93767;1202;92710;-59
2021/08/10 04:32:21;;;;;;;7.50;3.10;;;;;;;16.12;77.00;100843.27;93766;1202;77694;-59
2021/08/10 04:34:28;;;;;;;5.30;3.00;;;;;;;16.09;77.13;100846.30;93781;1202;81183;-59
2021/08/10 04:36:36;;;;;;;4.90;3.80;;;;;;;16.07;77.33;100848.11;93739;1200;96784;-59
2021/08/10 04:38:44;;;;;;;7.50;3.30;;;;;;;16.05;77.43;100847.70;93797;1202;86811;-59
2021/08/10 04:40:52;;;;;;;4.10;2.90;;;;;;;16.04;77.25;100848.04;93786;1202;93411;-65
2021/08/10 04:43:01;;;;;;;5.00;3.60;;;;;;;16.17;77.39;100845.86;93804;1196;77291;-66
2021/08/10 04:45:11;;;;;;;5.70;3.30;;;;;;;16.98;77.83;100841.37;93758;1202;82096;-58
2021/08/10 04:47:19;;;;;;;5.40;3.40;;;;;;;18.46;77.22;100837.84;93806;1202;98238;-58
2021/08/10 04:49:26;;;;;;;6.00;3.20;;;;;;;19.96;75.69;100835.27;93776;1202;88184;-58
2021/08/10 04:51:37;;;;;;;5.20;2.90;;;;;;;21.29;73.99;100834.73;93808;1196;93188;-66
2021/08/10 04:53:45;;;;;;;9.80;3.10;;;;;;;22.46;72.37;100834.32;93826;1202;78638;-66
2021/08/10 04:55:52;;;;;;;7.00;3.20;;;;;;;23.49;70.57;100831.10;93818;1196;81319;-59
2021/08/10 04:58:00;;;;;;;7.60;2.80;;;;;;;24.34;68.70;100836.77;93760;1202;98465;-59
2021/08/10 05:00:11;;;;;;;5.20;3.30;;;;;;;25.13;66.76;100835.04;93794;1202;86898;-59
2021/08/10 05:02:19;;;;;;;5.00;2.80;;;;;;;25.80;64.86;100834.23;93721;1203;94690;-59
2021/08/10 05:04:27;;;;;;;4.10;2.70;;;;;;;26.17;62.67;100833.96;93760;1202;79622;-59
2021/08/10 05:06:38;;;;;;;4.40;2.80;;;;;;;26.54;61.15;100832.10;93741;1196;81122;-66
2021/08/10 05:08:45;;;;;;;7.80;3.90;;;;;;;26.94;60.23;100826.13;93767;1196;97348;-66
2021/08/10 05:10:54;;;;;;;4.10;2.90;;;;;;;27.32;58.60;100832.14;93817;1202;88128;-65
2021/08/10 05:13:05;;;;;;;4.10;3.10;;;;;;;27.34;57.72;100832.77;93795;1202;94542;-66
2021/08/10 05:15:14;;;;;;;5.00;2.70;;;;;;;27.51;56.80;100833.23;93774;1202;78035;-58
2021/08/10 05:17:21;;;;;;;4.20;2.60;;;;;;;27.33;56.13;100839.02;93833;1196;82152;-58
2021/08/10 05:19:35;;;;;;;4.40;3.00;;;;;;;27.23;55.53;100838.41;93824;1202;98203;-58
2021/08/10 05:21:43;;;;;;;4.80;2.70;;;;;;;26.86;55.24;100837.40;93794;1202;88497;-66
2021/08/10 05:23:50;;;;;;;3.80;2.80;;;;;;;26.71;54.97;100837.11;93798;1200;93352;-65
2021/08/10 05:26:01;;;;;;;4.60;2.60;;;;;;;27.09;54.76;100837.46;93803;1202;78340;-58
2021/08/10 05:28:10;;;;;;;3.70;3.20;;;;;;;27.43;53.75;100833.52;93798;1196;81454;-58
2021/08/10 05:30:18;;;;;;;4.40;2.50;;;;;;;27.99;53.25;100834.72;93799;1197;99547;-66
2021/08/10 05:32:26;;;;;;;5.00;2.50;;;;;;;28.49;52.57;100839.22;93807;1202;86781;-66
2021/08/10 05:34:39;;;;;;;3.60;2.50;;;;;;;29.06;51.57;100840.57;93814;1196;92751;-66
2021/08/10 05:36:46;;;;;;;3.90;2.60;;;;;;;29.59;50.73;100838.00;93781;1195;77982;-58
2021/08/10 05:38:54;;;;;;;3.00;2.40;;;;;;;30.22;49.70;100839.30;93736;1196;82094;-57
2021/08/10 05:41:02;;;;;;;4.10;2.70;;;;;;;30.76;48.91;100833.23;93764;1202;99024;-58
2021/08/10 05:43:09;;;;;;;4.90;2.70;;;;;;;31.24;47.98;100831.29;93770;1202;88286;-58
2021/08/10 05:45:17;;;;;;;3.60;2.70;;;;;;;31.68;46.82;100833.52;93753;1196;92718;-66
2021/08/10 05:47:24;;;;;;;6.20;2.50;;;;;;;31.87;45.78;100830.70;93771;1201;79105;-66
2021/08/10 05:49:32;;;;;;;4.60;2.70;;;;;;;32.18;44.97;100823.04;93776;1202;81096;-66
2021/08/10 05:51:40;;;;;;;5.70;2.50;;;;;;;32.35;44.29;100822.65;93790;1202;98461;-58
2021/08/10 05:53:47;;;;;;;6.00;2.90;;;;;;;32.60;43.11;100822.94;93772;1201;87025;-58
2021/08/10 05:55:55;;;;;;;4.30;2.50;;;;;;;32.85;42.67;100821.50;93762;1195;94641;-66
2021/08/10 05:58:05;;;;;;;4.80;2.50;;;;;;;33.03;42.07;100827.27;93807;1202;78975;-66
2021/08/10 06:00:15;;;;;;;4.20;2.50;;;;;;;33.31;41.52;100820.09;93786;1190;80341;-66
2021/08/10 06:02:23;;;;;;;3.60;2.50;;;;;;;33.35;41.23;100816.73;93760;1196;97268;-66
2021/08/10 06:04:33;;;;;;;5.00;2.60;;;;;;;32.62;41.16;100819.23;93808;1202;86781;-66
2021/08/10 06:06:41;;;;;;;5.00;2.80;;;;;;;31.45;41.39;100821.20;93771;1202;93582;-58
2021/08/10 06:08:52;;;;;;;4.50;2.80;;;;;;;30.55;42.41;100820.92;93769;1196;79055;-58
2021/08/10 06:11:00;;;;;;;3.60;2.20;;;;;;;30.88;42.77;100819.34;93794;1195;81064;-67
2021/08/10 06:13:07;;;;;;;3.80;2.30;;;;;;;31.19;42.10;100818.84;93782;1202;99182;-67
2021/08/10 06:15:16;;;;;;;4.80;2.50;;;;;;;30.98;42.22;100818.95;93801;1202;88156;-57
2021/08/10 06:17:23;;;;;;;5.40;3.00;;;;;;;30.98;41.87;100820.76;93799;1202;93063;-58
2021/08/10 06:19:31;;;;;;;4.20;2.70;;;;;;;30.57;41.69;100818.36;93817;1202;79049;-58
2021/08/10 06:21:39;;;;;;;4.80;3.00;;;;;;;29.67;42.00;100812.51;93790;1202;81273;-66
2021/08/10 06:23:50;;;;;;;4.20;2.30;;;;;;;28.91;42.30;100813.13;93740;1202;99459;-66
2021/08/10 06:25:57;;;;;;;4.40;2.50;;;;;;;28.43;43.08;100819.27;93809;1202;87895;-58
2021/08/10 06:28:06;;;;;;;3.80;2.20;;;;;;;28.05;43.70;100815.39;93769;1202;94273;-57
2021/08/10 06:30:15;;;;;;;5.10;2.10;;;;;;;27.69;44.16;100820.52;93770;1189;77710;-66
2021/08/10 06:32:26;;;;;;;3.70;2.50;;;;;;;27.39;44.75;100815.55;93793;1195;81095;-66
2021/08/10 06:34:36;;;;;;;5.20;2.10;;;;;;;27.17;45.03;100817.33;93776;1202;98186;-66
2021/08/10 06:36:44;;;;;;;5.20;2.80;;;;;;;26.91;45.59;100815.34;93801;1202;87347;-66
2021/08/10 06:38:56;;;;;;;4.00;2.30;;;;;;;26.92;45.35;100818.84;93781;1202;93603;-66
2021/08/10 06:41:03;;;;;;;3.10;2.00;;;;;;;27.28;45.51;100824.90;93792;1202;79492;-58
2021/08/10 06:43:11;;;;;;;6.20;2.50;;;;;;;27.47;45.66;100818.95;93825;1195;81257;-58
2021/08/10 06:45:19;;;;;;;3.60;2.10;;;;;;;27.28;45.84;100819.63;93811;1201;98590;-65
2021/08/10 06:47:26;;;;;;;3.30;2.00;;;;;;;27.04;45.76;100818.25;93813;1202;87740;-65
2021/08/10 06:49:43;;;;;;;4.50;2.10;;;;;;;26.74;45.73;100814.09;93800;1196;94341;-66
2021/08/10 06:51:50;;;;;;;4.60;2.30;;;;;;;26.57;46.66;100814.41;93757;1202;80683;-66
2021/08/10 06:53:58;;;;;;;5.40;1.90;;;;;;;26.57;46.74;100815.56;93796;1202;82141;-66
2021/08/10 06:56:06;;;;;;;4.70;2.30;;;;;;;26.57;46.68;100816.23;93768;1202;99375;-65
2021/08/10 06:58:14;;;;;;;3.80;2.20;;;;;;;26.34;46.36;100815.23;93821;1202;87750;-66
2021/08/10 07:00:22;;;;;;;3.30;1.90;;;;;;;26.19;46.48;100815.17;93781;1202;94400;-65
2021/08/10 07:02:29;;;;;;;5.30;2.40;;;;;;;26.09;47.04;100812.19;93807;1202;77954;-65
2021/08/10 07:04:37;;;;;;;5.00;2.80;;;;;;;26.05;46.99;100812.65;93773;1202;81569;-61
2021/08/10 07:06:45;;;;;;;3.60;2.00;;;;;;;26.04;47.05;100806.99;93786;1202;98851;-66
2021/08/10 07:08:57;;;;;;;6.50;2.20;;;;;;;26.02;47.37;100807.29;93790;1196;87410;-66
2021/08/10 07:11:07;;;;;;;5.10;1.70;;;;;;;25.89;47.29;100806.05;93710;1201;95696;-66
2021/08/10 07:13:15;;;;;;;3.80;2.00;;;;;;;26.12;47.26;100802.27;93782;1189;78532;-66
2021/08/10 07:15:23;;;;;;;6.00;2.60;;;;;;;26.61;46.96;100803.06;93796;1201;81481;-58
2021/08/10 07:17:30;;;;;;;3.60;1.90;;;;;;;27.39;46.50;100799.11;93778;1201;98525;-58
2021/08/10 07:19:38;;;;;;;3.10;1.80;;;;;;;28.49;45.75;100801.09;93776;1202;88033;-61
2021/08/10 07:21:46;;;;;;;5.30;1.90;;;;;;;30.19;44.74;100798.70;93802;1202;94644;-59
2021/08/10 07:23:53;;;;;;;3.20;2.00;;;;;;;31.51;42.26;100793.26;93730;1202;78945;-58
2021/08/10 07:26:01;;;;;;;2.90;1.70;;;;;;;32.45;41.53;100788.29;93773;1202;82482;-66
2021/08/10 07:28:09;;;;;;;5.50;2.60;;;;;;;33.00;40.29;100790.17;93818;1202;97087;-66
2021/08/10 07:30:17;;;;;;;4.90;2.00;;;;;;;33.60;39.30;100782.96;93876;1201;87787;-59
2021/08/10 07:32:25;;;;;;;3.30;2.20;;;;;;;34.23;38.32;100781.70;93789;1202;94443;-62
2021/08/10 07:34:35;;;;;;;4.90;2.10;;;;;;;34.89;37.41;100779.25;93760;1189;79482;-62
2021/08/10 07:36:43;;;;;;;5.30;2.30;;;;;;;35.49;36.51;100775.11;93819;1202;81058;-62
2021/08/10 07:38:50;;;;;;;5.20;2.10;;;;;;;35.93;35.70;100778.77;93751;1202;99011;-62
2021/08/10 07:40:58;;;;;;;5.50;2.10;;;;;;;36.31;34.86;100776.06;93821;1202;88250;-62
2021/08/10 07:43:06;;;;;;;3.90;2.10;;;;;;;36.69;34.24;100776.95;93741;1202;94150;-62
2021/08/10 07:45:16;;;;;;;3.60;2.30;;;;;;;37.00;33.80;100781.48;93748;1196;78324;-70
2021/08/10 07:47:23;;;;;;;4.30;1.90;;;;;;;37.44;33.47;100780.83;93798;1202;81760;-69
2021/08/10 07:49:31;;;;;;;4.00;2.10;;;;;;;37.62;32.92;100783.76;93776;1202;98441;-70
2021/08/10 07:51:39;;;;;;;2.90;1.70;;;;;;;37.80;32.23;100786.36;93814;1202;87960;-62
2021/08/10 07:53:46;;;;;;;4.60;2.20;;;;;;;38.03;31.91;100790.67;93802;1202;94186;-63
2021/08/10 07:55:54;;;;;;;4.60;2.10;;;;;;;38.24;31.27;100785.96;93801;1202;80243;-70
2021/08/10 07:58:02;;;;;;;3.10;2.30;;;;;;;38.16;30.85;100790.13;93768;1202;82410;-70
2021/08/10 08:00:18;;;;;;;4.40;1.90;;;;;;;38.07;30.93;100790.04;93785;1202;99773;-63
2021/08/10 08:02:30;;;;;;;6.70;2.40;;;;;;;38.26;30.90;100793.61;93787;1205;87125;-70
2021/08/10 08:04:42;;;;;;;2.50;1.80;;;;;;;38.34;30.44;100793.71;93786;1202;94116;-66
2021/08/10 08:06:49;;;;;;;2.20;2.00;;;;;;;38.22;30.62;100794.39;93808;1196;77655;-70
2021/08/10 08:08:57;;;;;;;5.60;2.10;;;;;;;38.41;30.32;100791.73;93778;1202;82830;-70
2021/08/10 08:11:04;;;;;;;5.40;2.10;;;;;;;38.26;30.43;100786.75;93800;1202;99052;-65
2021/08/10 08:13:12;;;;;;;3.90;2.30;;;;;;;38.32;30.35;100786.10;93790;1202;89044;-64
2021/08/10 08:15:19;;;;;;;4.30;1.80;;;;;;;38.37;30.39;100783.40;93772;1202;94341;-77
2021/08/10 08:17:27;;;;;;;2.80;1.80;;;;;;;38.51;29.22;100781.23;93827;1202;78311;-77
2021/08/10 08:19:37;;;;;;;3.90;1.80;;;;;;;38.43;29.07;100782.73;93789;1202;81598;-75
2021/08/10 08:21:45;;;;;;;4.80;1.70;;;;;;;38.33;28.99;100781.11;93781;1202;98223;-65
2021/08/10 08:23:56;;;;;;;3.90;1.80;;;;;;;38.39;28.43;100781.69;93778;1196;86823;-65
2021/08/10 08:26:05;;;;;;;2.50;1.90;;;;;;;38.60;28.88;100781.93;93753;1202;94652;-78
2021/08/10 08:28:14;;;;;;;3.30;2.00;;;;;;;38.56;28.86;100786.84;93735;1202;80240;-77
2021/08/10 08:30:21;;;;;;;4.80;1.80;;;;;;;38.58;28.88;100791.73;93780;1202;81375;-77
2021/08/10 08:32:32;;;;;;;4.00;1.80;;;;;;;38.38;28.39;100790.88;93807;1202;97730;-76
2021/08/10 08:34:40;;;;;;;2.30;1.50;;;;;;;38.51;28.31;100788.17;93760;1195;86661;-65
2021/08/10 08:36:48;;;;;;;4.30;2.00;;;;;;;38.34;28.04;100791.70;93757;1202;94664;-65
2021/08/10 08:38:55;;;;;;;3.00;1.60;;;;;;;37.48;27.60;100791.91;93791;1202;79047;-65
2021/08/10 08:41:03;;;;;;;2.80;1.90;;;;;;;36.24;28.72;100789.85;93769;1196;80964;-76
2021/08/10 08:43:12;;;;;;;4.10;2.00;;;;;;;34.97;30.03;100792.14;93753;1202;99521;-76
2021/08/10 08:45:20;;;;;;;3.60;1.90;;;;;;;34.43;31.32;100793.90;93807;1196;86786;-77
2021/08/10 08:47:28;;;;;;;2.60;1.80;;;;;;;34.63;31.44;100794.02;93789;1202;93859;-75
2021/08/10 08:49:40;;;;;;;1.90;1.60;;;;;;;34.67;31.10;100789.20;93767;1189;79645;-70
2021/08/10 08:51:50;;;;;;;2.20;1.60;;;;;;;34.42;32.11;100791.57;93812;1202;83166;-59
2021/08/10 08:53:59;;;;;;;3.80;1.90;;;;;;;34.27;31.84;100790.70;93829;1202;98423;-57
2021/08/10 08:56:07;;;;;;;4.20;1.70;;;;;;;33.85;32.14;100793.47;93798;1202;87949;-64
2021/08/10 08:58:17;;;;;;;3.50;1.90;;;;;;;33.46;32.02;100794.03;93757;1200;94137;-66
2021/08/10 09:00:25;;;;;;;2.50;1.80;;;;;;;32.91;32.98;100791.38;93767;1202;79897;-67
2021/08/10 09:02:34;;;;;;;3.20;1.50;;;;;;;32.82;33.39;100791.70;93760;1202;82185;-66
2021/08/10 09:04:42;;;;;;;3.80;1.70;;;;;;;32.63;33.37;100788.20;93799;1202;97755;-59
2021/08/10 09:06:54;;;;;;;3.40;2.40;;;;;;;32.57;33.73;100785.64;93788;1202;89040;-59
2021/08/10 09:09:21;;;;;;;4.30;1.60;;;;;;;32.48;33.64;100782.49;93722;1202;93591;-58
2021/08/10 09:11:29;;;;;;;4.20;2.20;;;;;;;32.26;34.14;100781.36;93798;1196;79015;-58
2021/08/10 09:13:42;;;;;;;11.20;8.60;;;;;;;31.91;34.41;100772.39;93751;1189;80267;-58
2021/08/10 09:15:50;;;;;;;6.30;2.00;;;;;;;31.84;35.82;100776.56;93774;1202;99306;-66
2021/08/10 09:18:08;;;;;;;5.40;2.20;;;;;;;31.84;35.84;100776.39;93770;1202;88348;-58
2021/08/10 09:20:22;;;;;;;2.40;1.40;;;;;;;31.59;34.43;100777.74;93781;1195;93982;-58
2021/08/10 09:22:33;;;;;;;1.90;1.20;;;;;;;31.17;35.01;100777.47;93765;1202;79477;-58
2021/08/10 09:24:47;;;;;;;2.00;1.30;;;;;;;30.63;35.56;100777.84;93771;1200;81698;-64
2021/08/10 09:26:58;;;;;;;2.50;1.70;;;;;;;30.60;36.28;100777.68;93732;1202;98066;-65
2021/08/10 09:29:06;;;;;;;2.40;1.50;;;;;;;31.22;36.77;100772.98;93827;1202;87262;-65
2021/08/10 09:31:38;;;;;;;3.80;1.30;;;;;;;31.03;34.90;100769.29;93787;1202;93921;-65
2021/08/10 09:33:49;;;;;;;2.30;1.50;;;;;;;30.84;35.70;100766.11;93769;1202;80327;-66
2021/08/10 09:35:58;;;;;;;2.10;1.30;;;;;;;30.57;35.88;100769.73;93762;1202;82038;-65
2021/08/10 09:38:16;;;;;;;2.70;1.50;;;;;;;30.26;36.87;100763.06;93779;1196;98585;-65
2021/08/10 09:40:34;;;;;;;2.20;1.40;;;;;;;30.07;36.72;100761.85;93808;1195;87573;-60
2021/08/10 09:42:41;;;;;;;4.30;1.40;;;;;;;30.15;38.08;100759.51;93794;1201;92659;-63
2021/08/10 09:45:06;;;;;;;2.70;1.50;;;;;;;30.09;37.16;100758.19;93773;1187;78147;-63
2021/08/10 09:47:29;;;;;;;3.50;1.70;;;;;;;29.94;36.99;100754.70;93824;1201;83197;-63
2021/08/10 09:49:53;;;;;;;2.20;1.80;;;;;;;29.97;37.68;100749.46;93809;1202;98950;-62
2021/08/10 09:52:01;;;;;;;2.40;1.70;;;;;;;30.08;38.76;100747.11;93798;1202;87789;-58
2021/08/10 09:54:14;;;;;;;3.80;1.50;;;;;;;30.18;38.25;100745.45;93740;1201;94182;-59
2021/08/10 09:56:38;;;;;;;3.70;1.50;;;;;;;30.16;37.21;100736.73;93776;1202;80597;-64
2021/08/10 09:59:02;;;;;;;2.90;1.40;;;;;;;30.37;37.41;100732.44;93833;1195;81166;-58
2021/08/10 10:01:10;;;;;;;2.90;1.50;;;;;;;30.64;38.30;100725.14;93772;1202;97754;-64
2021/08/10 10:03:24;;;;;;;3.50;1.60;;;;;;;30.72;38.93;100725.41;93785;1202;88234;-58
2021/08/10 10:05:45;;;;;;;2.80;1.60;;;;;;;30.75;38.52;100723.38;93789;1202;94079;-64